Time;durP1;ratioP1;P1;durP2;ratioP2;P2;SDS_P1;SDS_P2;PMS_P1;PMS_P2;Temp;Humidity;BMP_temperature;BMP_pressure;BME280_temperature;BME280_humidity;BME280_pressure;Samples;Min_cycle;Max_cycle;Signal;HPM_P1;HPM_P2
2022/03/25 00:00:30;;;;;;;29.10;19.75;;;10.40;62.90;;;;;;5025734;28;20036;-58
2022/03/25 00:02:55;;;;;;;32.40;21.10;;;10.40;63.00;;;;;;5026809;28;20030;-58
2022/03/25 00:05:21;;;;;;;35.58;21.10;;;10.30;62.90;;;;;;5028262;28;20531;-58
2022/03/25 00:07:47;;;;;;;30.85;20.58;;;10.30;63.00;;;;;;5013339;28;20484;-59
2022/03/25 00:10:12;;;;;;;31.00;19.08;;;10.20;63.00;;;;;;5013281;28;20531;-61
2022/03/25 00:12:38;;;;;;;27.40;18.33;;;10.30;63.00;;;;;;5030699;28;20029;-59
2022/03/25 00:15:04;;;;;;;27.48;18.75;;;10.20;62.80;;;;;;5031015;28;20528;-59
2022/03/25 00:17:29;;;;;;;29.90;18.73;;;10.20;62.70;;;;;;5031093;28;20037;-59
2022/03/25 00:19:55;;;;;;;27.33;17.65;;;10.20;62.60;;;;;;5030707;28;20391;-58
2022/03/25 00:22:20;;;;;;;26.85;18.00;;;10.10;62.50;;;;;;5028391;28;20461;-58
2022/03/25 00:24:46;;;;;;;29.95;19.85;;;10.10;62.60;;;;;;5028085;28;20018;-58
2022/03/25 00:27:12;;;;;;;31.08;19.25;;;10.00;63.00;;;;;;5028067;28;20044;-58
2022/03/25 00:29:37;;;;;;;30.45;20.30;;;9.90;63.00;;;;;;5030754;28;20406;-58
2022/03/25 00:32:03;;;;;;;31.85;19.30;;;9.80;63.20;;;;;;5025549;28;20563;-58
2022/03/25 00:34:29;;;;;;;32.28;20.63;;;9.80;63.20;;;;;;5030765;28;20124;-59
2022/03/25 00:36:55;;;;;;;36.90;21.75;;;9.80;63.50;;;;;;5031176;28;20112;-58
2022/03/25 00:39:21;;;;;;;32.20;21.33;;;9.70;63.70;;;;;;5027513;28;20026;-58
2022/03/25 00:41:47;;;;;;;29.30;19.48;;;9.60;63.60;;;;;;5030406;28;20048;-58
2022/03/25 00:44:13;;;;;;;32.05;19.30;;;9.60;63.40;;;;;;5030572;28;20025;-58
2022/03/25 00:46:39;;;;;;;31.23;20.05;;;9.60;63.30;;;;;;5027560;28;20013;-58
2022/03/25 00:49:05;;;;;;;32.63;21.40;;;9.60;63.20;;;;;;5030382;28;20500;-58
2022/03/25 00:51:31;;;;;;;29.80;20.00;;;9.50;63.20;;;;;;5030358;28;20021;-58
2022/03/25 00:53:56;;;;;;;33.88;21.85;;;9.40;63.30;;;;;;5009813;28;20021;-58
2022/03/25 00:56:24;;;;;;;32.25;20.70;;;9.40;63.40;;;;;;5029810;28;20523;-58
2022/03/25 00:58:49;;;;;;;31.23;20.08;;;9.30;63.30;;;;;;5030080;28;20226;-58
2022/03/25 01:01:15;;;;;;;28.77;19.42;;;9.30;63.20;;;;;;5027766;28;20033;-58
2022/03/25 01:03:41;;;;;;;32.42;18.77;;;9.30;63.00;;;;;;5029701;28;20344;-58
2022/03/25 01:06:07;;;;;;;34.10;21.63;;;9.20;62.90;;;;;;5027616;28;20100;-58
2022/03/25 01:08:32;;;;;;;34.25;20.00;;;9.20;63.00;;;;;;5012208;28;20128;-58
2022/03/25 01:10:58;;;;;;;32.35;18.80;;;9.10;63.10;;;;;;5027240;28;20121;-58
2022/03/25 01:13:24;;;;;;;29.42;19.33;;;9.10;62.90;;;;;;5029930;28;20087;-58
2022/03/25 01:15:49;;;;;;;29.60;17.85;;;9.10;62.70;;;;;;5029870;28;20033;-58
2022/03/25 01:18:15;;;;;;;31.25;19.00;;;9.10;62.50;;;;;;5028897;28;20104;-58
2022/03/25 01:20:41;;;;;;;32.78;21.00;;;9.10;62.40;;;;;;5029408;28;20075;-59
2022/03/25 01:23:08;;;;;;;31.20;21.02;;;9.00;62.60;;;;;;5028631;28;20032;-58
2022/03/25 01:25:34;;;;;;;36.50;22.23;;;8.90;62.80;;;;;;5028485;28;20401;-58
2022/03/25 01:27:59;;;;;;;29.58;19.67;;;8.80;63.00;;;;;;5029942;28;20076;-59
2022/03/25 01:30:25;;;;;;;33.38;20.23;;;8.80;63.00;;;;;;5028626;28;20404;-58
2022/03/25 01:32:50;;;;;;;29.55;18.55;;;8.70;62.90;;;;;;5027988;28;20025;-58
2022/03/25 01:35:16;;;;;;;33.42;19.35;;;8.70;62.80;;;;;;5011833;28;20083;-58
2022/03/25 01:37:43;;;;;;;36.42;22.10;;;8.60;62.80;;;;;;5026538;28;20025;-58
2022/03/25 01:40:09;;;;;;;36.53;22.60;;;8.60;63.00;;;;;;4995179;28;20057;-58
2022/03/25 01:42:36;;;;;;;35.55;20.85;;;8.50;63.10;;;;;;5011486;28;20113;-58
2022/03/25 01:45:04;;;;;;;37.40;22.27;;;8.50;63.10;;;;;;5029047;28;20029;-58
2022/03/25 01:47:32;;;;;;;34.25;21.67;;;8.50;63.30;;;;;;5029357;28;20105;-58
2022/03/25 01:49:58;;;;;;;32.40;20.88;;;8.40;62.90;;;;;;5029245;28;20029;-58
2022/03/25 01:52:24;;;;;;;29.63;18.70;;;8.50;62.70;;;;;;5023838;28;20029;-58
2022/03/25 01:54:50;;;;;;;31.73;19.65;;;8.40;62.60;;;;;;5026455;28;20424;-58
2022/03/25 01:57:18;;;;;;;31.35;19.15;;;8.40;62.50;;;;;;5027185;28;20029;-58
2022/03/25 01:59:44;;;;;;;31.52;18.20;;;8.40;62.40;;;;;;5003007;28;20049;-58
2022/03/25 02:02:11;;;;;;;30.17;19.10;;;8.40;62.30;;;;;;5026432;28;20055;-58
2022/03/25 02:04:37;;;;;;;26.90;17.85;;;8.40;62.30;;;;;;5026521;28;20021;-58
2022/03/25 02:07:03;;;;;;;34.05;20.73;;;8.30;62.30;;;;;;5028768;28;20031;-58
2022/03/25 02:09:29;;;;;;;32.97;20.40;;;8.30;62.50;;;;;;5028961;28;20025;-58
2022/03/25 02:11:55;;;;;;;29.10;18.65;;;8.30;62.50;;;;;;5028814;28;20101;-58
2022/03/25 02:14:22;;;;;;;32.05;20.20;;;8.20;62.60;;;;;;5026081;28;20433;-58
2022/03/25 02:16:48;;;;;;;27.48;17.85;;;8.20;62.60;;;;;;5023412;28;20444;-58
2022/03/25 02:19:18;;;;;;;29.55;17.92;;;8.20;62.70;;;;;;5028805;28;20515;-58
2022/03/25 02:21:45;;;;;;;31.75;19.55;;;8.20;62.80;;;;;;5010704;28;20135;-59
2022/03/25 02:24:12;;;;;;;32.78;19.38;;;8.10;63.00;;;;;;5023369;28;20084;-58
2022/03/25 02:26:38;;;;;;;30.33;20.25;;;8.00;63.10;;;;;;5022547;28;20091;-58
2022/03/25 02:29:05;;;;;;;29.13;18.90;;;7.90;63.30;;;;;;5025669;28;20025;-58
2022/03/25 02:31:31;;;;;;;33.75;20.20;;;7.90;63.50;;;;;;5010829;28;20021;-58
2022/03/25 02:34:00;;;;;;;32.40;19.27;;;7.90;63.50;;;;;;5025900;28;20109;-58
2022/03/25 02:36:25;;;;;;;32.40;20.87;;;7.90;63.50;;;;;;5028613;28;20102;-58
2022/03/25 02:38:51;;;;;;;40.03;23.63;;;7.80;63.60;;;;;;5028431;28;20449;-59
2022/03/25 02:41:16;;;;;;;36.60;23.48;;;7.70;64.40;;;;;;5028523;28;20030;-61
2022/03/25 02:43:42;;;;;;;35.72;22.10;;;7.60;64.60;;;;;;5010431;28;20108;-58
2022/03/25 02:46:08;;;;;;;40.72;23.25;;;7.60;64.60;;;;;;5028512;28;20499;-58
2022/03/25 02:48:33;;;;;;;39.35;24.10;;;7.50;64.70;;;;;;5028334;28;20021;-58
2022/03/25 02:50:59;;;;;;;36.20;22.33;;;7.50;65.00;;;;;;5027893;28;20492;-58
2022/03/25 02:53:25;;;;;;;34.08;21.83;;;7.40;65.10;;;;;;5028284;28;20030;-58
2022/03/25 02:55:51;;;;;;;38.45;23.65;;;7.40;65.20;;;;;;5028320;28;20021;-59
2022/03/25 02:58:17;;;;;;;39.70;24.17;;;7.40;65.60;;;;;;5028348;28;20060;-58
2022/03/25 03:00:43;;;;;;;38.33;22.10;;;7.40;65.70;;;;;;5027645;28;20068;-58
2022/03/25 03:03:09;;;;;;;37.63;22.20;;;7.30;65.60;;;;;;5028137;28;20449;-58
2022/03/25 03:05:34;;;;;;;41.53;26.15;;;7.30;65.60;;;;;;5010241;28;20032;-58
2022/03/25 03:08:01;;;;;;;36.90;24.38;;;7.30;66.10;;;;;;5027786;28;20108;-58
2022/03/25 03:10:27;;;;;;;37.25;23.65;;;7.20;66.10;;;;;;5028017;28;20105;-58
2022/03/25 03:12:53;;;;;;;33.10;20.88;;;7.20;66.20;;;;;;5028084;28;20401;-58
2022/03/25 03:15:20;;;;;;;36.00;22.38;;;7.20;66.00;;;;;;5028306;28;20075;-58
2022/03/25 03:17:46;;;;;;;35.88;22.52;;;7.20;65.90;;;;;;5022820;28;20500;-58
2022/03/25 03:20:13;;;;;;;40.55;23.77;;;7.20;65.90;;;;;;5027885;28;20029;-58
2022/03/25 03:22:39;;;;;;;39.15;24.65;;;7.20;66.20;;;;;;5025065;28;20021;-58
2022/03/25 03:25:05;;;;;;;38.10;23.58;;;7.10;66.60;;;;;;5007490;28;20079;-58
2022/03/25 03:27:31;;;;;;;40.35;24.15;;;7.00;66.60;;;;;;5028595;28;20052;-58
2022/03/25 03:29:58;;;;;;;35.33;21.38;;;7.00;66.60;;;;;;5028309;28;20060;-58
2022/03/25 03:32:25;;;;;;;39.92;26.08;;;6.90;66.70;;;;;;5027608;28;20032;-58
2022/03/25 03:34:52;;;;;;;48.17;28.08;;;6.90;67.80;;;;;;5027683;28;20485;-58
2022/03/25 03:37:18;;;;;;;42.95;27.65;;;6.80;67.70;;;;;;5010051;28;20408;-58
2022/03/25 03:39:43;;;;;;;43.38;26.08;;;6.80;67.70;;;;;;5027818;28;20025;-58
2022/03/25 03:42:09;;;;;;;41.72;25.10;;;6.80;67.80;;;;;;5031200;28;20032;-58
2022/03/25 03:44:36;;;;;;;51.47;30.23;;;6.80;67.80;;;;;;5032707;28;20262;-58
2022/03/25 03:47:03;;;;;;;48.72;27.35;;;6.70;68.30;;;;;;5031620;28;20052;-58
2022/03/25 03:49:29;;;;;;;42.47;26.23;;;6.70;68.30;;;;;;5031461;28;20041;-58
2022/03/25 03:51:54;;;;;;;39.33;24.55;;;6.70;68.30;;;;;;4997209;28;20048;-58
2022/03/25 03:54:20;;;;;;;43.28;25.45;;;6.70;68.20;;;;;;5028450;28;20549;-58
2022/03/25 03:56:46;;;;;;;41.50;26.05;;;6.60;68.50;;;;;;5028910;28;20057;-58
2022/03/25 03:59:12;;;;;;;43.05;23.50;;;6.60;68.50;;;;;;5025535;28;20091;-58
2022/03/25 04:01:37;;;;;;;35.95;22.63;;;6.60;68.60;;;;;;5031065;28;20139;-58
2022/03/25 04:04:03;;;;;;;36.00;22.92;;;6.60;68.50;;;;;;5031002;28;20030;-57
2022/03/25 04:06:28;;;;;;;36.08;22.05;;;6.60;68.50;;;;;;5031137;28;20022;-58
2022/03/25 04:08:56;;;;;;;35.53;22.13;;;6.60;68.50;;;;;;5031147;28;20029;-57
2022/03/25 04:11:21;;;;;;;37.47;22.45;;;6.50;68.50;;;;;;5030893;28;20068;-58
2022/03/25 04:13:47;;;;;;;39.88;24.63;;;6.50;68.50;;;;;;5031239;28;20069;-58
2022/03/25 04:16:13;;;;;;;37.75;23.27;;;6.50;68.70;;;;;;5028227;28;20026;-62
2022/03/25 04:18:38;;;;;;;38.38;24.17;;;6.50;68.80;;;;;;5028119;28;20105;-58
2022/03/25 04:21:04;;;;;;;39.72;23.90;;;6.40;68.90;;;;;;5010218;28;20037;-58
2022/03/25 04:23:30;;;;;;;40.38;25.38;;;6.40;69.70;;;;;;5028452;28;20436;-58
2022/03/25 04:25:55;;;;;;;51.97;29.27;;;6.30;69.50;;;;;;5028155;28;20030;-58
2022/03/25 04:28:22;;;;;;;42.72;26.83;;;6.30;70.10;;;;;;5030663;28;20028;-58
2022/03/25 04:30:47;;;;;;;40.75;25.02;;;6.30;70.00;;;;;;5012942;28;20073;-58
2022/03/25 04:33:13;;;;;;;38.78;23.10;;;6.30;70.00;;;;;;5030651;28;20064;-59
2022/03/25 04:35:38;;;;;;;41.95;24.23;;;6.20;70.00;;;;;;5027852;28;20112;-57
2022/03/25 04:38:04;;;;;;;38.88;23.80;;;6.20;70.00;;;;;;5012609;28;20484;-58
2022/03/25 04:40:30;;;;;;;35.85;22.25;;;6.20;70.00;;;;;;5030489;28;20499;-58
2022/03/25 04:42:58;;;;;;;33.92;21.77;;;6.10;69.90;;;;;;5030457;28;20138;-60
2022/03/25 04:45:25;;;;;;;35.80;21.75;;;6.10;70.10;;;;;;5030302;28;20018;-58
2022/03/25 04:47:51;;;;;;;37.22;22.08;;;6.00;70.20;;;;;;5012556;28;20427;-58
2022/03/25 04:50:18;;;;;;;34.97;21.63;;;6.00;70.30;;;;;;5030471;28;20041;-58
2022/03/25 04:52:44;;;;;;;34.90;21.55;;;6.00;70.30;;;;;;5029729;28;20028;-58
2022/03/25 04:55:12;;;;;;;34.72;22.30;;;5.90;70.40;;;;;;5030292;28;20043;-58
2022/03/25 04:57:39;;;;;;;39.15;23.63;;;5.90;70.50;;;;;;5030319;28;20444;-58
2022/03/25 05:00:06;;;;;;;39.08;23.52;;;5.80;70.50;;;;;;5012203;28;20033;-58
2022/03/25 05:02:31;;;;;;;35.72;21.65;;;5.80;70.70;;;;;;5030150;28;20432;-58
2022/03/25 05:04:58;;;;;;;36.78;22.83;;;5.80;70.90;;;;;;5012161;28;20469;-58
2022/03/25 05:07:23;;;;;;;36.40;22.33;;;5.70;70.90;;;;;;5029988;28;20485;-58
2022/03/25 05:09:49;;;;;;;38.13;22.60;;;5.70;71.10;;;;;;5030066;28;20108;-58
2022/03/25 05:12:15;;;;;;;34.75;21.33;;;5.60;71.20;;;;;;5029977;28;20032;-58
2022/03/25 05:14:41;;;;;;;38.95;22.23;;;5.60;71.40;;;;;;5029565;28;20029;-58
2022/03/25 05:17:07;;;;;;;38.72;22.17;;;5.50;71.70;;;;;;5027211;28;20061;-57
2022/03/25 05:19:33;;;;;;;37.05;22.17;;;5.50;71.80;;;;;;5029779;28;20445;-58
2022/03/25 05:21:58;;;;;;;35.08;21.05;;;5.50;71.80;;;;;;5026969;28;20026;-57
2022/03/25 05:24:25;;;;;;;38.58;22.63;;;5.50;71.70;;;;;;5027088;28;20017;-58
2022/03/25 05:26:51;;;;;;;36.63;22.33;;;5.50;71.70;;;;;;5027087;28;20492;-58
2022/03/25 05:29:16;;;;;;;38.45;22.85;;;5.40;71.70;;;;;;5011559;28;20037;-58
2022/03/25 05:31:43;;;;;;;41.75;24.88;;;5.40;71.80;;;;;;5017021;28;20090;-57
2022/03/25 05:34:08;;;;;;;48.15;27.85;;;5.40;71.90;;;;;;5027271;28;20043;-58
2022/03/25 05:36:34;;;;;;;42.63;25.30;;;5.40;72.20;;;;;;5029511;28;20025;-58
2022/03/25 05:39:00;;;;;;;42.08;25.23;;;5.30;72.30;;;;;;5011557;28;20124;-58
2022/03/25 05:41:27;;;;;;;40.05;23.98;;;5.30;72.30;;;;;;5026721;28;20057;-58
2022/03/25 05:43:53;;;;;;;40.70;23.95;;;5.30;72.40;;;;;;5029292;28;20033;-57
2022/03/25 05:46:19;;;;;;;47.78;27.70;;;5.30;72.50;;;;;;5026553;28;20030;-58
2022/03/25 05:48:45;;;;;;;64.03;35.10;;;5.20;72.90;;;;;;5029065;28;20022;-57
2022/03/25 05:51:11;;;;;;;59.80;36.08;;;5.20;73.90;;;;;;5025146;28;20409;-58
2022/03/25 05:53:37;;;;;;;62.92;38.88;;;5.10;74.40;;;;;;5027802;28;20021;-58
2022/03/25 05:56:03;;;;;;;60.20;37.25;;;5.10;75.00;;;;;;5029153;28;20363;-57
2022/03/25 05:58:35;;;;;;;66.70;38.55;;;5.10;75.20;;;;;;5029021;28;20034;-58
2022/03/25 06:01:01;;;;;;;64.10;37.67;;;5.10;75.60;;;;;;5029113;28;20128;-58
2022/03/25 06:03:27;;;;;;;64.40;38.17;;;5.10;75.80;;;;;;5028426;28;20021;-58
2022/03/25 06:05:53;;;;;;;76.13;44.95;;;5.10;76.10;;;;;;5026494;28;20036;-57
2022/03/25 06:08:19;;;;;;;66.13;40.83;;;5.10;76.80;;;;;;5028888;28;20026;-57
2022/03/25 06:10:44;;;;;;;63.85;38.22;;;5.10;76.70;;;;;;5028653;28;20041;-58
2022/03/25 06:13:10;;;;;;;61.20;37.70;;;5.10;76.90;;;;;;5028762;28;20428;-58
2022/03/25 06:15:35;;;;;;;61.67;37.40;;;5.20;76.90;;;;;;5028804;28;20202;-58
2022/03/25 06:18:01;;;;;;;60.28;37.45;;;5.20;76.90;;;;;;5029127;28;20412;-58
2022/03/25 06:20:29;;;;;;;84.65;49.72;;;5.20;76.70;;;;;;5029153;28;20057;-58
2022/03/25 06:22:56;;;;;;;73.13;45.17;;;5.20;77.60;;;;;;5014609;28;20021;-57
2022/03/25 06:25:22;;;;;;;82.60;50.05;;;5.30;77.90;;;;;;5031773;28;20026;-58
2022/03/25 06:27:47;;;;;;;73.63;44.28;;;5.30;78.50;;;;;;5032569;28;20037;-56
2022/03/25 06:30:13;;;;;;;78.90;46.55;;;5.30;78.50;;;;;;5032711;28;20030;-58
2022/03/25 06:32:40;;;;;;;73.80;42.75;;;5.30;78.70;;;;;;5032343;28;20026;-58
2022/03/25 06:35:07;;;;;;;66.60;40.60;;;5.40;78.60;;;;;;5014748;28;20025;-58
2022/03/25 06:37:33;;;;;;;76.07;46.45;;;5.40;78.40;;;;;;5032342;28;20077;-57
2022/03/25 06:39:58;;;;;;;82.75;48.17;;;5.40;78.80;;;;;;5032157;28;20029;-58
2022/03/25 06:42:24;;;;;;;80.63;48.40;;;5.50;79.30;;;;;;5030799;28;20116;-58
2022/03/25 06:44:49;;;;;;;72.03;44.47;;;5.50;79.60;;;;;;5031554;28;20029;-58
2022/03/25 06:47:15;;;;;;;70.78;44.13;;;5.50;79.30;;;;;;5012640;28;20026;-58
2022/03/25 06:49:41;;;;;;;65.20;41.05;;;5.60;79.40;;;;;;5029073;28;20045;-58
2022/03/25 06:52:07;;;;;;;65.38;39.08;;;5.60;79.20;;;;;;5013573;28;20120;-58
2022/03/25 06:54:32;;;;;;;70.35;42.97;;;5.70;79.00;;;;;;5031649;28;20030;-58
2022/03/25 06:56:58;;;;;;;71.15;42.28;;;5.80;79.10;;;;;;5031468;28;20127;-58
2022/03/25 06:59:24;;;;;;;77.05;46.30;;;5.80;79.10;;;;;;5010056;28;20145;-58
2022/03/25 07:01:50;;;;;;;79.03;47.80;;;5.80;79.40;;;;;;5008360;28;20037;-58
2022/03/25 07:04:15;;;;;;;77.78;45.15;;;5.90;79.60;;;;;;5009588;28;20342;-58
2022/03/25 07:06:43;;;;;;;91.32;52.97;;;5.90;79.70;;;;;;5010430;28;20057;-58
2022/03/25 07:09:09;;;;;;;85.80;51.65;;;6.00;80.40;;;;;;5010966;28;20080;-58
2022/03/25 07:11:35;;;;;;;80.97;49.70;;;6.00;80.60;;;;;;5012298;28;20022;-58
2022/03/25 07:14:00;;;;;;;83.40;51.45;;;6.10;80.70;;;;;;5009995;28;20425;-58
2022/03/25 07:16:26;;;;;;;82.43;50.75;;;6.10;81.00;;;;;;5013579;28;20018;-58
2022/03/25 07:18:51;;;;;;;88.57;54.38;;;6.20;81.10;;;;;;5016268;28;20053;-58
2022/03/25 07:21:17;;;;;;;96.75;58.25;;;6.20;81.60;;;;;;5014768;28;20486;-58
2022/03/25 07:23:43;;;;;;;90.93;56.25;;;6.30;82.20;;;;;;5014950;28;20072;-58
2022/03/25 07:26:09;;;;;;;87.40;51.78;;;6.30;82.30;;;;;;5016363;28;20026;-58
2022/03/25 07:28:34;;;;;;;81.90;50.20;;;6.40;82.20;;;;;;5014871;28;20018;-58
2022/03/25 07:31:00;;;;;;;86.03;53.47;;;6.50;82.20;;;;;;5014518;28;20504;-58
2022/03/25 07:33:26;;;;;;;78.80;48.80;;;6.50;82.40;;;;;;5012165;28;20560;-58
2022/03/25 07:35:51;;;;;;;96.35;58.25;;;6.60;82.30;;;;;;5013585;28;20030;-58
2022/03/25 07:38:17;;;;;;;85.53;53.35;;;6.70;82.90;;;;;;5014227;28;20477;-58
2022/03/25 07:40:42;;;;;;;78.47;49.53;;;6.80;82.80;;;;;;5011838;28;20026;-58
2022/03/25 07:43:08;;;;;;;82.38;50.55;;;6.80;82.60;;;;;;5011111;28;20020;-58
2022/03/25 07:45:33;;;;;;;79.50;48.97;;;6.90;82.50;;;;;;5012766;28;20517;-57
2022/03/25 07:47:59;;;;;;;86.13;50.92;;;7.00;82.50;;;;;;5012823;28;20477;-58
2022/03/25 07:50:24;;;;;;;82.45;50.13;;;7.10;82.70;;;;;;5013379;28;20058;-58
2022/03/25 07:52:51;;;;;;;78.72;49.92;;;7.20;82.60;;;;;;5012273;28;20084;-58
2022/03/25 07:55:21;;;;;;;77.63;49.60;;;7.30;82.60;;;;;;5013658;28;20033;-58
2022/03/25 07:57:48;;;;;;;84.30;51.83;;;7.40;82.60;;;;;;5013564;28;20018;-58
2022/03/25 08:00:14;;;;;;;80.57;51.08;;;7.40;82.80;;;;;;5031817;28;20043;-58
2022/03/25 08:02:41;;;;;;;79.20;50.58;;;7.50;82.70;;;;;;5033481;28;20017;-58
2022/03/25 08:05:09;;;;;;;75.43;49.38;;;7.60;82.60;;;;;;5018466;28;20032;-58
2022/03/25 08:07:55;;;;;;;70.53;45.97;;;7.70;82.50;;;;;;5033411;28;20021;-58
2022/03/25 08:10:22;;;;;;;68.15;43.30;;;7.90;82.30;;;;;;5033228;28;20060;-57
2022/03/25 08:12:49;;;;;;;74.90;49.13;;;8.00;82.20;;;;;;5033274;28;20033;-58
2022/03/25 08:15:15;;;;;;;81.75;52.97;;;8.00;82.10;;;;;;5033378;28;20018;-58
2022/03/25 08:17:55;;;;;;;81.75;52.30;;;8.20;82.70;;;;;;5033112;28;20296;-58
2022/03/25 08:20:23;;;;;;;80.43;52.58;;;8.30;82.40;;;;;;5033180;28;20021;-58
2022/03/25 08:22:49;;;;;;;72.70;47.03;;;8.40;82.30;;;;;;5033021;28;20388;-58
2022/03/25 08:28:01;;;;;;;75.30;49.60;;;8.50;81.70;;;;;;5033144;28;20036;-58
2022/03/25 08:30:32;;;;;;;72.75;47.35;;;8.70;81.40;;;;;;5027045;28;20100;-57
2022/03/25 08:32:58;;;;;;;68.97;43.60;;;8.80;81.10;;;;;;4997121;28;20030;-57
2022/03/25 08:35:27;;;;;;;69.88;45.35;;;8.90;80.80;;;;;;5014536;28;20036;-58
2022/03/25 08:37:54;;;;;;;71.25;46.63;;;9.00;80.50;;;;;;5014890;28;20029;-57
2022/03/25 08:40:27;;;;;;;73.00;49.42;;;9.10;80.20;;;;;;5014816;28;20120;-57
2022/03/25 08:42:52;;;;;;;69.97;45.90;;;9.20;80.00;;;;;;5014442;28;20034;-57
2022/03/25 08:45:18;;;;;;;66.78;43.65;;;9.30;79.80;;;;;;5014121;28;20095;-58
2022/03/25 08:47:44;;;;;;;69.40;45.97;;;9.40;79.50;;;;;;5013292;28;20106;-58
2022/03/25 08:50:14;;;;;;;67.40;45.50;;;9.50;79.10;;;;;;4997044;28;20030;-58
2022/03/25 08:52:40;;;;;;;65.55;44.67;;;9.70;78.60;;;;;;5029589;28;20025;-58
2022/03/25 08:55:06;;;;;;;74.25;46.78;;;9.80;78.30;;;;;;5033864;28;20397;-58
2022/03/25 08:57:33;;;;;;;74.60;49.40;;;9.90;77.90;;;;;;5034066;28;20036;-58
2022/03/25 08:59:58;;;;;;;71.63;47.90;;;10.00;77.50;;;;;;5016205;28;20049;-58
2022/03/25 09:02:24;;;;;;;70.03;47.90;;;10.10;77.10;;;;;;5033992;28;20037;-58
2022/03/25 09:04:49;;;;;;;67.82;46.33;;;10.20;76.70;;;;;;5033877;28;20469;-58
2022/03/25 09:07:15;;;;;;;67.45;44.28;;;10.30;76.20;;;;;;5033960;28;20100;-58
2022/03/25 09:09:41;;;;;;;68.35;44.72;;;10.40;75.80;;;;;;5033790;28;20104;-58
2022/03/25 09:12:08;;;;;;;58.45;38.70;;;10.50;75.20;;;;;;5016155;28;20388;-58
2022/03/25 09:14:34;;;;;;;57.72;39.53;;;10.60;74.80;;;;;;5033562;28;20550;-58
2022/03/25 09:16:59;;;;;;;57.88;40.13;;;10.80;74.40;;;;;;5015502;28;20033;-59
2022/03/25 09:19:25;;;;;;;60.33;40.33;;;10.90;73.80;;;;;;5033366;28;20021;-58
2022/03/25 09:21:50;;;;;;;63.80;42.97;;;11.00;73.30;;;;;;5033676;28;20021;-58
2022/03/25 09:24:16;;;;;;;64.82;43.92;;;11.10;72.60;;;;;;5033368;28;20417;-58
2022/03/25 09:26:41;;;;;;;61.17;41.78;;;11.20;72.10;;;;;;5033083;28;20017;-58
2022/03/25 09:29:07;;;;;;;54.95;38.80;;;11.30;71.70;;;;;;5015696;28;20095;-58
2022/03/25 09:31:33;;;;;;;55.25;39.08;;;11.40;71.40;;;;;;5015748;28;20018;-58
2022/03/25 09:35:08;;;;;;;58.10;39.00;;;11.50;70.90;;;;;;5033360;28;20029;-58
2022/03/25 09:36:44;;;;;;;51.72;36.03;;;11.70;70.30;;;;;;5032929;28;20032;-58
2022/03/25 09:39:10;;;;;;;57.88;39.03;;;11.80;70.10;;;;;;5032295;28;20021;-58
2022/03/25 09:41:36;;;;;;;61.60;43.28;;;11.90;69.20;;;;;;5033328;28;20029;-59
2022/03/25 09:44:03;;;;;;;61.85;41.70;;;12.10;67.20;;;;;;5033198;28;20030;-58
2022/03/25 09:46:29;;;;;;;50.65;36.03;;;12.20;65.80;;;;;;5032981;28;20029;-59
2022/03/25 09:48:55;;;;;;;55.35;37.90;;;12.30;65.90;;;;;;5033133;28;20382;-59
2022/03/25 09:51:20;;;;;;;54.40;38.58;;;12.40;65.70;;;;;;5032962;28;20040;-58
2022/03/25 09:53:47;;;;;;;54.22;35.70;;;12.60;65.40;;;;;;5032969;28;20033;-59
2022/03/25 09:56:15;;;;;;;53.72;37.42;;;12.70;65.00;;;;;;5032792;28;20513;-58
2022/03/25 09:58:41;;;;;;;44.65;32.40;;;12.80;64.30;;;;;;5032704;28;20054;-58
2022/03/25 10:01:06;;;;;;;53.20;38.00;;;13.00;64.10;;;;;;5015038;28;20026;-59
2022/03/25 10:03:36;;;;;;;51.03;35.15;;;13.20;63.20;;;;;;5015410;28;20017;-58
2022/03/25 10:06:04;;;;;;;44.85;32.20;;;13.40;62.70;;;;;;5032588;28;20032;-58
2022/03/25 10:08:31;;;;;;;39.65;27.60;;;13.60;62.30;;;;;;5032730;28;20032;-59
2022/03/25 10:11:17;;;;;;;41.00;28.60;;;13.70;62.10;;;;;;5032000;28;20080;-58
2022/03/25 10:13:42;;;;;;;40.33;27.73;;;14.00;61.70;;;;;;5031660;28;20122;-59
2022/03/25 10:16:28;;;;;;;38.88;28.83;;;14.20;61.40;;;;;;5007842;28;20029;-59
2022/03/25 10:18:56;;;;;;;44.53;31.55;;;14.50;60.10;;;;;;5018737;28;20029;-59
2022/03/25 10:21:22;;;;;;;40.28;29.23;;;14.60;59.70;;;;;;5030976;28;20040;-59
2022/03/25 10:23:48;;;;;;;47.10;33.90;;;14.80;59.50;;;;;;5031035;28;20026;-58
2022/03/25 10:26:13;;;;;;;48.35;34.05;;;15.10;58.50;;;;;;5030709;28;20362;-58
2022/03/25 10:28:44;;;;;;;40.22;29.00;;;15.20;57.70;;;;;;5031023;28;20424;-59
2022/03/25 10:31:13;;;;;;;47.25;33.83;;;15.40;57.40;;;;;;5028237;28;20032;-59
2022/03/25 10:33:49;;;;;;;46.13;32.45;;;15.70;56.40;;;;;;5030679;28;20487;-58
2022/03/25 10:36:17;;;;;;;36.60;28.23;;;15.90;55.90;;;;;;5012726;28;20029;-58
2022/03/25 10:38:54;;;;;;;45.97;32.35;;;16.30;56.00;;;;;;5029055;28;20160;-59
2022/03/25 10:41:22;;;;;;;37.17;28.98;;;16.60;54.80;;;;;;5032144;28;20053;-59
2022/03/25 10:43:51;;;;;;;39.00;29.58;;;16.90;54.80;;;;;;5032111;28;20455;-59
2022/03/25 10:46:32;;;;;;;38.20;26.63;;;17.30;54.10;;;;;;5031874;28;20801;-59
2022/03/25 10:48:58;;;;;;;36.22;26.42;;;17.80;53.20;;;;;;5032048;28;20021;-59
2022/03/25 10:51:24;;;;;;;34.90;26.05;;;18.20;52.80;;;;;;5014423;28;20022;-59
2022/03/25 10:54:07;;;;;;;29.58;24.10;;;18.80;51.60;;;;;;5032154;28;20021;-60
2022/03/25 10:56:49;;;;;;;29.30;23.02;;;19.40;51.00;;;;;;5014530;28;20036;-59
2022/03/25 10:59:34;;;;;;;26.77;21.77;;;20.20;50.40;;;;;;5031822;28;20057;-59
2022/03/25 11:02:07;;;;;;;25.65;19.90;;;21.10;49.90;;;;;;5031923;28;20014;-59
2022/03/25 11:04:34;;;;;;;23.08;20.00;;;22.70;48.60;;;;;;5014231;28;20021;-60
2022/03/25 11:07:01;;;;;;;25.17;20.20;;;25.10;45.80;;;;;;5029916;28;20032;-60
2022/03/25 11:09:27;;;;;;;24.23;20.48;;;27.30;42.50;;;;;;5030310;28;20017;-60
2022/03/25 11:11:55;;;;;;;24.40;19.40;;;29.20;39.40;;;;;;5032182;28;20025;-60
2022/03/25 11:14:21;;;;;;;23.35;20.55;;;31.00;37.60;;;;;;5030568;28;20028;-60
2022/03/25 11:16:52;;;;;;;22.45;18.48;;;32.80;36.00;;;;;;5031504;28;20377;-60
2022/03/25 11:19:18;;;;;;;25.88;21.27;;;34.20;34.10;;;;;;5031797;28;20036;-60
2022/03/25 11:21:47;;;;;;;20.48;17.35;;;35.40;32.10;;;;;;5031826;28;20021;-60
2022/03/25 11:24:19;;;;;;;;;;;36.60;31.00;;;;;;5032028;28;20473;-61
2022/03/25 11:26:47;;;;;;;25.77;21.40;;;37.70;30.30;;;;;;5030663;28;19959;-60
2022/03/25 11:29:16;;;;;;;22.13;19.80;;;38.60;28.80;;;;;;5030594;28;20028;-60
2022/03/25 11:32:03;;;;;;;21.67;18.80;;;39.60;28.60;;;;;;5031514;28;20817;-60
2022/03/25 11:34:29;;;;;;;18.45;16.63;;;40.70;28.20;;;;;;5030981;28;20026;-60
2022/03/25 11:37:24;;;;;;;20.73;18.52;;;41.40;27.60;;;;;;5030422;28;20323;-60
2022/03/25 11:40:14;;;;;;;19.15;17.27;;;42.10;26.60;;;;;;5018609;28;20136;-61
2022/03/25 11:42:50;;;;;;;21.65;18.95;;;42.70;26.20;;;;;;5028919;28;20431;-61
2022/03/25 11:45:22;;;;;;;19.70;17.67;;;43.30;26.30;;;;;;5031676;28;20040;-60
2022/03/25 11:48:00;;;;;;;17.60;15.73;;;43.80;26.10;;;;;;5031329;28;20435;-60
2022/03/25 11:50:37;;;;;;;18.55;16.73;;;44.10;25.30;;;;;;5030212;28;20550;-60
2022/03/25 11:53:12;;;;;;;19.02;17.02;;;43.90;25.20;;;;;;5031343;28;20059;-60
2022/03/25 11:56:01;;;;;;;17.98;16.05;;;44.30;25.10;;;;;;5030282;28;20493;-61
2022/03/25 11:58:32;;;;;;;16.55;14.85;;;44.90;25.00;;;;;;5029893;28;20056;-61
2022/03/25 12:01:04;;;;;;;17.17;14.90;;;45.50;24.70;;;;;;5031714;28;20029;-61
2022/03/25 12:03:53;;;;;;;18.13;16.23;;;46.00;24.60;;;;;;5035133;28;20075;-60
2022/03/25 12:06:29;;;;;;;19.02;17.08;;;46.50;24.00;;;;;;5035058;28;20080;-61
2022/03/25 12:09:05;;;;;;;17.40;15.60;;;46.70;23.80;;;;;;5034213;28;20496;-60
2022/03/25 12:11:50;;;;;;;20.17;18.02;;;47.10;24.00;;;;;;5031954;28;20025;-61
2022/03/25 12:14:26;;;;;;;21.40;19.20;;;47.40;23.70;;;;;;5032766;28;20021;-61
2022/03/25 12:16:53;;;;;;;21.60;19.40;;;47.50;23.80;;;;;;5034168;28;20048;-60
2022/03/25 12:19:31;;;;;;;18.08;16.38;;;47.50;23.60;;;;;;5034505;28;20022;-61
2022/03/25 12:22:18;;;;;;;19.27;17.42;;;47.70;23.70;;;;;;5034891;28;20017;-61
2022/03/25 12:24:48;;;;;;;21.40;19.35;;;47.70;23.80;;;;;;5033234;28;20026;-61
2022/03/25 12:27:14;;;;;;;18.73;17.02;;;47.60;23.60;;;;;;5033076;28;20104;-61
2022/03/25 12:29:48;;;;;;;19.63;17.88;;;47.80;23.60;;;;;;5032716;28;20812;-61
2022/03/25 12:32:16;;;;;;;22.73;18.98;;;47.80;23.60;;;;;;5031389;28;20100;-61
2022/03/25 12:35:16;;;;;;;19.55;17.55;;;48.00;23.50;;;;;;5032299;28;20044;-61
2022/03/25 12:37:48;;;;;;;18.85;17.10;;;48.40;23.40;;;;;;5034238;28;20022;-61